sensor_id;sensor_type;location;lat;lon;timestamp;P1;durP1;ratioP1;P2;durP2;ratioP2
25153;SDS011;47555;51.038;6.280;2023-10-09T00:01:48;9.32;;;5.57;;
25153;SDS011;47555;51.038;6.280;2023-10-09T00:04:14;10.30;;;6.30;;
25153;SDS011;47555;51.038;6.280;2023-10-09T00:06:41;11.60;;;6.13;;
25153;SDS011;47555;51.038;6.280;2023-10-09T00:09:07;9.10;;;6.13;;
25153;SDS011;47555;51.038;6.280;2023-10-09T00:11:53;10.10;;;6.03;;
25153;SDS011;47555;51.038;6.280;2023-10-09T00:14:25;9.50;;;5.82;;
25153;SDS011;47555;51.038;6.280;2023-10-09T00:16:52;9.30;;;5.78;;
25153;SDS011;47555;51.038;6.280;2023-10-09T00:19:43;8.18;;;5.03;;
25153;SDS011;47555;51.038;6.280;2023-10-09T00:22:09;10.30;;;5.10;;
25153;SDS011;47555;51.038;6.280;2023-10-09T00:24:44;10.27;;;5.55;;
25153;SDS011;47555;51.038;6.280;2023-10-09T00:27:12;12.20;;;5.47;;
25153;SDS011;47555;51.038;6.280;2023-10-09T00:29:41;10.23;;;5.88;;
25153;SDS011;47555;51.038;6.280;2023-10-09T00:32:13;9.38;;;5.55;;
25153;SDS011;47555;51.038;6.280;2023-10-09T00:34:51;8.25;;;5.15;;
25153;SDS011;47555;51.038;6.280;2023-10-09T00:37:17;10.50;;;5.15;;
25153;SDS011;47555;51.038;6.280;2023-10-09T00:39:48;9.38;;;5.35;;
25153;SDS011;47555;51.038;6.280;2023-10-09T00:42:20;9.68;;;4.90;;
25153;SDS011;47555;51.038;6.280;2023-10-09T00:44:53;8.95;;;4.90;;
25153;SDS011;47555;51.038;6.280;2023-10-09T00:47:20;9.45;;;5.25;;
25153;SDS011;47555;51.038;6.280;2023-10-09T00:49:59;10.48;;;5.38;;
25153;SDS011;47555;51.038;6.280;2023-10-09T00:52:33;11.05;;;5.30;;
25153;SDS011;47555;51.038;6.280;2023-10-09T00:55:09;9.48;;;5.15;;
25153;SDS011;47555;51.038;6.280;2023-10-09T00:57:43;10.80;;;5.60;;
25153;SDS011;47555;51.038;6.280;2023-10-09T01:00:21;8.20;;;4.95;;
25153;SDS011;47555;51.038;6.280;2023-10-09T01:02:56;7.90;;;5.40;;
25153;SDS011;47555;51.038;6.280;2023-10-09T01:05:35;12.38;;;6.43;;
25153;SDS011;47555;51.038;6.280;2023-10-09T01:08:02;10.05;;;6.10;;
25153;SDS011;47555;51.038;6.280;2023-10-09T01:10:45;8.82;;;5.40;;
25153;SDS011;47555;51.038;6.280;2023-10-09T01:13:16;9.85;;;5.90;;
25153;SDS011;47555;51.038;6.280;2023-10-09T01:15:43;9.82;;;5.50;;
25153;SDS011;47555;51.038;6.280;2023-10-09T01:18:10;10.73;;;6.00;;
25153;SDS011;47555;51.038;6.280;2023-10-09T01:20:37;9.10;;;5.80;;
25153;SDS011;47555;51.038;6.280;2023-10-09T01:23:10;9.40;;;5.75;;
25153;SDS011;47555;51.038;6.280;2023-10-09T01:25:36;10.05;;;5.40;;
25153;SDS011;47555;51.038;6.280;2023-10-09T01:28:14;8.82;;;5.38;;
25153;SDS011;47555;51.038;6.280;2023-10-09T01:30:41;10.23;;;5.60;;
25153;SDS011;47555;51.038;6.280;2023-10-09T01:33:07;10.52;;;5.90;;
25153;SDS011;47555;51.038;6.280;2023-10-09T01:35:49;11.82;;;6.10;;
25153;SDS011;47555;51.038;6.280;2023-10-09T01:38:21;12.85;;;5.60;;
25153;SDS011;47555;51.038;6.280;2023-10-09T01:41:05;12.43;;;6.40;;
25153;SDS011;47555;51.038;6.280;2023-10-09T01:43:34;11.45;;;5.85;;
25153;SDS011;47555;51.038;6.280;2023-10-09T01:46:00;11.25;;;6.47;;
25153;SDS011;47555;51.038;6.280;2023-10-09T01:48:26;8.77;;;6.20;;
25153;SDS011;47555;51.038;6.280;2023-10-09T01:50:52;9.13;;;5.60;;
25153;SDS011;47555;51.038;6.280;2023-10-09T01:53:18;11.02;;;5.80;;
25153;SDS011;47555;51.038;6.280;2023-10-09T01:55:47;8.63;;;5.50;;
25153;SDS011;47555;51.038;6.280;2023-10-09T01:58:20;11.15;;;6.50;;
25153;SDS011;47555;51.038;6.280;2023-10-09T02:00:46;12.80;;;5.20;;
25153;SDS011;47555;51.038;6.280;2023-10-09T02:03:20;11.43;;;5.95;;
25153;SDS011;47555;51.038;6.280;2023-10-09T02:05:48;10.60;;;5.55;;
25153;SDS011;47555;51.038;6.280;2023-10-09T02:08:28;13.32;;;6.13;;
25153;SDS011;47555;51.038;6.280;2023-10-09T02:10:55;8.27;;;5.57;;
25153;SDS011;47555;51.038;6.280;2023-10-09T02:13:22;10.45;;;5.85;;
25153;SDS011;47555;51.038;6.280;2023-10-09T02:15:55;9.27;;;5.88;;
25153;SDS011;47555;51.038;6.280;2023-10-09T02:18:37;9.40;;;5.75;;
25153;SDS011;47555;51.038;6.280;2023-10-09T02:21:18;10.52;;;5.05;;
25153;SDS011;47555;51.038;6.280;2023-10-09T02:23:57;8.00;;;5.28;;
25153;SDS011;47555;51.038;6.280;2023-10-09T02:26:28;9.63;;;5.32;;
25153;SDS011;47555;51.038;6.280;2023-10-09T02:29:13;9.82;;;4.75;;
25153;SDS011;47555;51.038;6.280;2023-10-09T02:31:43;9.80;;;6.15;;
25153;SDS011;47555;51.038;6.280;2023-10-09T02:34:12;9.80;;;5.20;;
25153;SDS011;47555;51.038;6.280;2023-10-09T02:36:41;7.65;;;5.50;;
25153;SDS011;47555;51.038;6.280;2023-10-09T02:39:07;9.77;;;5.82;;
25153;SDS011;47555;51.038;6.280;2023-10-09T02:41:47;9.13;;;5.20;;
25153;SDS011;47555;51.038;6.280;2023-10-09T02:44:15;10.32;;;5.82;;
25153;SDS011;47555;51.038;6.280;2023-10-09T02:46:42;10.70;;;5.75;;
25153;SDS011;47555;51.038;6.280;2023-10-09T02:49:09;10.57;;;5.65;;
25153;SDS011;47555;51.038;6.280;2023-10-09T02:51:40;11.23;;;6.35;;
25153;SDS011;47555;51.038;6.280;2023-10-09T02:54:09;10.52;;;6.38;;
25153;SDS011;47555;51.038;6.280;2023-10-09T02:56:52;10.32;;;6.38;;
25153;SDS011;47555;51.038;6.280;2023-10-09T02:59:32;9.45;;;6.10;;
25153;SDS011;47555;51.038;6.280;2023-10-09T03:01:58;10.07;;;5.70;;
25153;SDS011;47555;51.038;6.280;2023-10-09T03:04:26;9.63;;;6.05;;
25153;SDS011;47555;51.038;6.280;2023-10-09T03:06:54;9.60;;;5.90;;
25153;SDS011;47555;51.038;6.280;2023-10-09T03:09:22;9.63;;;6.07;;
25153;SDS011;47555;51.038;6.280;2023-10-09T03:14:20;11.38;;;6.13;;
25153;SDS011;47555;51.038;6.280;2023-10-09T03:16:46;12.07;;;5.57;;
25153;SDS011;47555;51.038;6.280;2023-10-09T03:19:15;10.57;;;5.75;;
25153;SDS011;47555;51.038;6.280;2023-10-09T03:21:41;10.07;;;5.68;;
25153;SDS011;47555;51.038;6.280;2023-10-09T03:24:07;13.70;;;6.60;;
25153;SDS011;47555;51.038;6.280;2023-10-09T03:26:34;12.00;;;6.45;;
25153;SDS011;47555;51.038;6.280;2023-10-09T03:29:00;9.85;;;5.47;;
25153;SDS011;47555;51.038;6.280;2023-10-09T03:31:29;12.38;;;6.82;;
25153;SDS011;47555;51.038;6.280;2023-10-09T03:33:55;12.57;;;6.70;;
25153;SDS011;47555;51.038;6.280;2023-10-09T03:36:21;10.63;;;6.63;;
25153;SDS011;47555;51.038;6.280;2023-10-09T03:38:51;11.00;;;6.18;;
25153;SDS011;47555;51.038;6.280;2023-10-09T03:41:20;10.75;;;6.55;;
25153;SDS011;47555;51.038;6.280;2023-10-09T03:43:46;11.90;;;6.70;;
25153;SDS011;47555;51.038;6.280;2023-10-09T03:46:12;12.45;;;6.65;;
25153;SDS011;47555;51.038;6.280;2023-10-09T03:48:51;11.95;;;6.30;;
25153;SDS011;47555;51.038;6.280;2023-10-09T03:51:18;10.65;;;6.18;;
25153;SDS011;47555;51.038;6.280;2023-10-09T03:53:47;13.25;;;6.93;;
25153;SDS011;47555;51.038;6.280;2023-10-09T03:56:13;11.57;;;6.60;;
25153;SDS011;47555;51.038;6.280;2023-10-09T03:58:46;11.57;;;5.57;;
25153;SDS011;47555;51.038;6.280;2023-10-09T04:01:13;8.80;;;6.40;;
25153;SDS011;47555;51.038;6.280;2023-10-09T04:03:48;12.18;;;6.05;;
25153;SDS011;47555;51.038;6.280;2023-10-09T04:06:15;10.18;;;6.63;;
25153;SDS011;47555;51.038;6.280;2023-10-09T04:08:43;11.32;;;6.18;;
25153;SDS011;47555;51.038;6.280;2023-10-09T04:11:12;11.05;;;6.65;;
25153;SDS011;47555;51.038;6.280;2023-10-09T04:13:42;10.98;;;5.55;;
25153;SDS011;47555;51.038;6.280;2023-10-09T04:16:10;9.88;;;6.10;;
25153;SDS011;47555;51.038;6.280;2023-10-09T04:18:57;13.65;;;6.13;;
25153;SDS011;47555;51.038;6.280;2023-10-09T04:21:23;10.85;;;6.47;;
25153;SDS011;47555;51.038;6.280;2023-10-09T04:24:05;11.10;;;6.03;;
25153;SDS011;47555;51.038;6.280;2023-10-09T04:26:47;11.77;;;6.82;;
25153;SDS011;47555;51.038;6.280;2023-10-09T04:29:14;9.32;;;6.15;;
25153;SDS011;47555;51.038;6.280;2023-10-09T04:31:51;8.00;;;5.50;;
25153;SDS011;47555;51.038;6.280;2023-10-09T04:34:18;12.35;;;7.15;;
25153;SDS011;47555;51.038;6.280;2023-10-09T04:36:47;11.23;;;6.80;;
25153;SDS011;47555;51.038;6.280;2023-10-09T04:39:21;11.23;;;7.10;;
25153;SDS011;47555;51.038;6.280;2023-10-09T04:41:56;12.13;;;6.82;;
25153;SDS011;47555;51.038;6.280;2023-10-09T04:44:41;13.18;;;6.80;;
25153;SDS011;47555;51.038;6.280;2023-10-09T04:47:29;13.75;;;6.25;;
25153;SDS011;47555;51.038;6.280;2023-10-09T04:50:02;12.45;;;6.68;;
25153;SDS011;47555;51.038;6.280;2023-10-09T04:52:36;10.95;;;6.60;;
25153;SDS011;47555;51.038;6.280;2023-10-09T04:55:03;13.27;;;7.05;;
25153;SDS011;47555;51.038;6.280;2023-10-09T04:57:32;11.68;;;6.40;;
25153;SDS011;47555;51.038;6.280;2023-10-09T05:00:21;14.23;;;6.85;;
25153;SDS011;47555;51.038;6.280;2023-10-09T05:02:50;12.30;;;6.95;;
25153;SDS011;47555;51.038;6.280;2023-10-09T05:05:24;10.45;;;5.70;;
25153;SDS011;47555;51.038;6.280;2023-10-09T05:10:47;12.40;;;5.85;;
25153;SDS011;47555;51.038;6.280;2023-10-09T05:13:31;11.98;;;6.60;;
25153;SDS011;47555;51.038;6.280;2023-10-09T05:16:04;11.88;;;6.63;;
25153;SDS011;47555;51.038;6.280;2023-10-09T05:18:30;10.85;;;7.00;;
25153;SDS011;47555;51.038;6.280;2023-10-09T05:21:05;12.30;;;6.22;;
25153;SDS011;47555;51.038;6.280;2023-10-09T05:23:37;12.35;;;6.10;;
25153;SDS011;47555;51.038;6.280;2023-10-09T05:26:16;12.32;;;6.53;;
25153;SDS011;47555;51.038;6.280;2023-10-09T05:29:02;15.00;;;7.00;;
25153;SDS011;47555;51.038;6.280;2023-10-09T05:31:44;13.07;;;6.80;;
25153;SDS011;47555;51.038;6.280;2023-10-09T05:34:20;11.18;;;6.43;;
25153;SDS011;47555;51.038;6.280;2023-10-09T05:36:47;11.23;;;6.43;;
25153;SDS011;47555;51.038;6.280;2023-10-09T05:39:13;16.40;;;6.85;;
25153;SDS011;47555;51.038;6.280;2023-10-09T05:42:06;11.13;;;6.10;;
25153;SDS011;47555;51.038;6.280;2023-10-09T05:44:43;12.00;;;6.50;;
25153;SDS011;47555;51.038;6.280;2023-10-09T05:47:41;11.38;;;6.43;;
25153;SDS011;47555;51.038;6.280;2023-10-09T05:50:18;10.57;;;6.15;;
25153;SDS011;47555;51.038;6.280;2023-10-09T05:52:44;12.77;;;6.72;;
25153;SDS011;47555;51.038;6.280;2023-10-09T05:55:16;13.77;;;7.55;;
25153;SDS011;47555;51.038;6.280;2023-10-09T05:57:54;12.70;;;7.18;;
25153;SDS011;47555;51.038;6.280;2023-10-09T06:00:21;11.98;;;6.97;;
25153;SDS011;47555;51.038;6.280;2023-10-09T06:03:06;12.63;;;7.03;;
25153;SDS011;47555;51.038;6.280;2023-10-09T06:05:47;11.57;;;6.80;;
25153;SDS011;47555;51.038;6.280;2023-10-09T06:08:30;14.52;;;7.13;;
25153;SDS011;47555;51.038;6.280;2023-10-09T06:11:06;12.25;;;6.55;;
25153;SDS011;47555;51.038;6.280;2023-10-09T06:13:55;13.73;;;7.32;;
25153;SDS011;47555;51.038;6.280;2023-10-09T06:16:37;11.32;;;7.10;;
25153;SDS011;47555;51.038;6.280;2023-10-09T06:19:07;12.00;;;6.47;;
25153;SDS011;47555;51.038;6.280;2023-10-09T06:21:33;12.88;;;7.38;;
25153;SDS011;47555;51.038;6.280;2023-10-09T06:24:18;13.57;;;7.13;;
25153;SDS011;47555;51.038;6.280;2023-10-09T06:26:45;12.20;;;7.07;;
25153;SDS011;47555;51.038;6.280;2023-10-09T06:29:26;10.40;;;6.03;;
25153;SDS011;47555;51.038;6.280;2023-10-09T06:32:02;13.68;;;7.10;;
25153;SDS011;47555;51.038;6.280;2023-10-09T06:37:10;13.30;;;6.90;;
25153;SDS011;47555;51.038;6.280;2023-10-09T06:39:51;11.00;;;6.35;;
25153;SDS011;47555;51.038;6.280;2023-10-09T06:42:21;12.25;;;6.82;;
25153;SDS011;47555;51.038;6.280;2023-10-09T06:45:01;11.80;;;7.07;;
25153;SDS011;47555;51.038;6.280;2023-10-09T06:47:36;12.82;;;6.68;;
25153;SDS011;47555;51.038;6.280;2023-10-09T06:50:21;10.88;;;6.13;;
25153;SDS011;47555;51.038;6.280;2023-10-09T06:52:52;14.95;;;7.40;;
25153;SDS011;47555;51.038;6.280;2023-10-09T06:55:36;13.20;;;7.15;;
25153;SDS011;47555;51.038;6.280;2023-10-09T06:58:28;15.43;;;7.10;;
25153;SDS011;47555;51.038;6.280;2023-10-09T07:01:07;9.15;;;5.97;;
25153;SDS011;47555;51.038;6.280;2023-10-09T07:03:56;11.15;;;6.28;;
25153;SDS011;47555;51.038;6.280;2023-10-09T07:06:35;10.75;;;6.70;;
25153;SDS011;47555;51.038;6.280;2023-10-09T07:09:01;12.50;;;7.15;;
25153;SDS011;47555;51.038;6.280;2023-10-09T07:11:33;12.68;;;7.80;;
25153;SDS011;47555;51.038;6.280;2023-10-09T07:16:32;12.45;;;7.32;;
25153;SDS011;47555;51.038;6.280;2023-10-09T07:19:04;12.27;;;7.65;;
25153;SDS011;47555;51.038;6.280;2023-10-09T07:21:49;14.02;;;7.13;;
25153;SDS011;47555;51.038;6.280;2023-10-09T07:24:19;14.13;;;8.00;;
25153;SDS011;47555;51.038;6.280;2023-10-09T07:27:02;14.60;;;7.13;;
25153;SDS011;47555;51.038;6.280;2023-10-09T07:29:32;16.52;;;7.18;;
25153;SDS011;47555;51.038;6.280;2023-10-09T07:32:12;16.58;;;7.75;;
25153;SDS011;47555;51.038;6.280;2023-10-09T07:34:44;14.23;;;7.55;;
25153;SDS011;47555;51.038;6.280;2023-10-09T07:37:25;12.18;;;7.32;;
25153;SDS011;47555;51.038;6.280;2023-10-09T07:39:55;14.02;;;7.32;;
25153;SDS011;47555;51.038;6.280;2023-10-09T07:42:31;13.73;;;7.30;;
25153;SDS011;47555;51.038;6.280;2023-10-09T07:45:06;15.60;;;7.70;;
25153;SDS011;47555;51.038;6.280;2023-10-09T07:47:47;16.02;;;7.28;;
25153;SDS011;47555;51.038;6.280;2023-10-09T07:50:27;14.88;;;7.90;;
25153;SDS011;47555;51.038;6.280;2023-10-09T07:53:05;12.25;;;7.43;;
25153;SDS011;47555;51.038;6.280;2023-10-09T07:55:46;13.65;;;7.90;;
25153;SDS011;47555;51.038;6.280;2023-10-09T07:58:31;14.45;;;7.53;;
25153;SDS011;47555;51.038;6.280;2023-10-09T08:01:10;16.05;;;7.90;;
25153;SDS011;47555;51.038;6.280;2023-10-09T08:04:00;14.43;;;7.40;;
25153;SDS011;47555;51.038;6.280;2023-10-09T08:06:36;15.90;;;7.35;;
25153;SDS011;47555;51.038;6.280;2023-10-09T08:09:09;12.05;;;7.55;;
25153;SDS011;47555;51.038;6.280;2023-10-09T08:11:48;13.45;;;7.80;;
25153;SDS011;47555;51.038;6.280;2023-10-09T08:14:32;13.77;;;7.70;;
25153;SDS011;47555;51.038;6.280;2023-10-09T08:16:58;14.20;;;7.57;;
25153;SDS011;47555;51.038;6.280;2023-10-09T08:19:40;13.98;;;7.95;;
25153;SDS011;47555;51.038;6.280;2023-10-09T08:22:22;16.23;;;7.22;;
25153;SDS011;47555;51.038;6.280;2023-10-09T08:24:48;15.38;;;7.80;;
25153;SDS011;47555;51.038;6.280;2023-10-09T08:29:55;17.52;;;9.02;;
25153;SDS011;47555;51.038;6.280;2023-10-09T08:32:40;15.98;;;7.10;;
25153;SDS011;47555;51.038;6.280;2023-10-09T08:35:08;14.55;;;7.20;;
25153;SDS011;47555;51.038;6.280;2023-10-09T08:37:53;12.75;;;7.78;;
25153;SDS011;47555;51.038;6.280;2023-10-09T08:40:19;15.10;;;7.95;;
25153;SDS011;47555;51.038;6.280;2023-10-09T08:42:51;11.40;;;7.40;;
25153;SDS011;47555;51.038;6.280;2023-10-09T08:45:21;15.30;;;7.82;;
25153;SDS011;47555;51.038;6.280;2023-10-09T08:47:53;14.82;;;8.52;;
25153;SDS011;47555;51.038;6.280;2023-10-09T08:50:20;15.00;;;7.00;;
25153;SDS011;47555;51.038;6.280;2023-10-09T08:52:47;14.70;;;8.10;;
25153;SDS011;47555;51.038;6.280;2023-10-09T08:55:14;13.90;;;7.32;;
25153;SDS011;47555;51.038;6.280;2023-10-09T08:57:42;12.73;;;7.55;;
25153;SDS011;47555;51.038;6.280;2023-10-09T09:00:10;15.50;;;7.47;;
25153;SDS011;47555;51.038;6.280;2023-10-09T09:02:46;11.75;;;7.03;;
25153;SDS011;47555;51.038;6.280;2023-10-09T09:05:19;12.35;;;7.28;;
25153;SDS011;47555;51.038;6.280;2023-10-09T09:07:49;14.27;;;6.75;;
25153;SDS011;47555;51.038;6.280;2023-10-09T09:10:15;13.32;;;7.25;;
25153;SDS011;47555;51.038;6.280;2023-10-09T09:12:48;16.35;;;8.15;;
25153;SDS011;47555;51.038;6.280;2023-10-09T09:15:26;14.90;;;8.20;;
25153;SDS011;47555;51.038;6.280;2023-10-09T09:18:02;13.32;;;7.88;;
25153;SDS011;47555;51.038;6.280;2023-10-09T09:20:31;16.00;;;7.63;;
25153;SDS011;47555;51.038;6.280;2023-10-09T09:23:02;13.38;;;8.05;;
25153;SDS011;47555;51.038;6.280;2023-10-09T09:25:44;16.80;;;7.65;;
25153;SDS011;47555;51.038;6.280;2023-10-09T09:28:14;15.15;;;8.07;;
25153;SDS011;47555;51.038;6.280;2023-10-09T09:30:47;16.13;;;7.72;;
25153;SDS011;47555;51.038;6.280;2023-10-09T09:36:03;14.77;;;8.13;;
25153;SDS011;47555;51.038;6.280;2023-10-09T09:38:33;11.18;;;6.97;;
25153;SDS011;47555;51.038;6.280;2023-10-09T09:41:07;15.07;;;7.93;;
25153;SDS011;47555;51.038;6.280;2023-10-09T09:43:34;13.85;;;7.53;;
25153;SDS011;47555;51.038;6.280;2023-10-09T09:46:00;12.85;;;6.93;;
25153;SDS011;47555;51.038;6.280;2023-10-09T09:48:32;16.17;;;7.10;;
25153;SDS011;47555;51.038;6.280;2023-10-09T09:51:04;11.88;;;7.03;;
25153;SDS011;47555;51.038;6.280;2023-10-09T09:53:33;16.63;;;7.30;;
25153;SDS011;47555;51.038;6.280;2023-10-09T09:56:00;13.73;;;7.05;;
25153;SDS011;47555;51.038;6.280;2023-10-09T09:58:27;13.45;;;7.22;;
25153;SDS011;47555;51.038;6.280;2023-10-09T10:01:07;11.55;;;6.90;;
25153;SDS011;47555;51.038;6.280;2023-10-09T10:03:42;12.93;;;7.30;;
25153;SDS011;47555;51.038;6.280;2023-10-09T10:06:10;12.50;;;6.88;;
25153;SDS011;47555;51.038;6.280;2023-10-09T10:08:38;13.63;;;6.53;;
25153;SDS011;47555;51.038;6.280;2023-10-09T10:11:06;12.60;;;6.47;;
25153;SDS011;47555;51.038;6.280;2023-10-09T10:18:53;9.52;;;6.20;;
25153;SDS011;47555;51.038;6.280;2023-10-09T10:21:39;9.95;;;5.82;;
25153;SDS011;47555;51.038;6.280;2023-10-09T10:24:56;12.32;;;6.38;;
25153;SDS011;47555;51.038;6.280;2023-10-09T10:27:19;12.23;;;5.90;;
25153;SDS011;47555;51.038;6.280;2023-10-09T10:35:17;10.25;;;5.90;;
25153;SDS011;47555;51.038;6.280;2023-10-09T10:37:57;8.90;;;5.63;;
25153;SDS011;47555;51.038;6.280;2023-10-09T10:40:33;11.15;;;5.13;;
25153;SDS011;47555;51.038;6.280;2023-10-09T10:43:15;11.50;;;5.68;;
25153;SDS011;47555;51.038;6.280;2023-10-09T10:46:03;10.27;;;5.30;;
25153;SDS011;47555;51.038;6.280;2023-10-09T10:48:48;9.38;;;4.97;;
25153;SDS011;47555;51.038;6.280;2023-10-09T10:51:14;10.82;;;5.30;;
25153;SDS011;47555;51.038;6.280;2023-10-09T10:53:52;12.35;;;5.75;;
25153;SDS011;47555;51.038;6.280;2023-10-09T10:56:25;12.98;;;5.65;;
25153;SDS011;47555;51.038;6.280;2023-10-09T10:59:01;12.80;;;5.40;;
25153;SDS011;47555;51.038;6.280;2023-10-09T11:01:30;9.70;;;5.50;;
25153;SDS011;47555;51.038;6.280;2023-10-09T11:04:18;11.57;;;5.35;;
25153;SDS011;47555;51.038;6.280;2023-10-09T11:06:57;9.70;;;5.53;;
25153;SDS011;47555;51.038;6.280;2023-10-09T11:12:28;10.60;;;6.13;;
25153;SDS011;47555;51.038;6.280;2023-10-09T11:15:06;12.93;;;6.30;;
25153;SDS011;47555;51.038;6.280;2023-10-09T11:17:59;10.15;;;5.43;;
25153;SDS011;47555;51.038;6.280;2023-10-09T11:20:41;11.60;;;6.50;;
25153;SDS011;47555;51.038;6.280;2023-10-09T11:23:20;12.10;;;6.15;;
25153;SDS011;47555;51.038;6.280;2023-10-09T11:26:04;12.32;;;5.95;;
25153;SDS011;47555;51.038;6.280;2023-10-09T11:28:46;13.10;;;6.38;;
25153;SDS011;47555;51.038;6.280;2023-10-09T11:31:22;9.82;;;5.93;;
25153;SDS011;47555;51.038;6.280;2023-10-09T11:33:48;15.27;;;6.43;;
25153;SDS011;47555;51.038;6.280;2023-10-09T11:36:16;18.02;;;6.97;;
25153;SDS011;47555;51.038;6.280;2023-10-09T11:38:42;10.55;;;5.50;;
25153;SDS011;47555;51.038;6.280;2023-10-09T11:41:14;9.20;;;6.05;;
25153;SDS011;47555;51.038;6.280;2023-10-09T11:43:47;11.93;;;6.30;;
25153;SDS011;47555;51.038;6.280;2023-10-09T11:46:17;10.82;;;5.75;;
25153;SDS011;47555;51.038;6.280;2023-10-09T11:49:11;10.68;;;6.22;;
25153;SDS011;47555;51.038;6.280;2023-10-09T11:51:46;13.90;;;6.55;;
25153;SDS011;47555;51.038;6.280;2023-10-09T11:54:31;11.52;;;6.10;;
25153;SDS011;47555;51.038;6.280;2023-10-09T11:56:58;12.73;;;6.53;;
25153;SDS011;47555;51.038;6.280;2023-10-09T11:59:26;12.65;;;6.63;;
25153;SDS011;47555;51.038;6.280;2023-10-09T12:01:52;11.50;;;5.68;;
25153;SDS011;47555;51.038;6.280;2023-10-09T12:04:19;9.55;;;5.95;;
25153;SDS011;47555;51.038;6.280;2023-10-09T12:06:55;12.15;;;6.80;;
25153;SDS011;47555;51.038;6.280;2023-10-09T12:09:31;12.50;;;7.15;;
25153;SDS011;47555;51.038;6.280;2023-10-09T12:11:59;11.25;;;6.80;;
25153;SDS011;47555;51.038;6.280;2023-10-09T12:14:25;10.65;;;6.40;;
25153;SDS011;47555;51.038;6.280;2023-10-09T12:16:58;12.25;;;6.78;;
25153;SDS011;47555;51.038;6.280;2023-10-09T12:19:24;13.05;;;6.55;;
25153;SDS011;47555;51.038;6.280;2023-10-09T12:21:50;12.30;;;6.43;;
25153;SDS011;47555;51.038;6.280;2023-10-09T12:24:18;12.70;;;6.15;;
25153;SDS011;47555;51.038;6.280;2023-10-09T12:26:44;11.23;;;6.05;;
25153;SDS011;47555;51.038;6.280;2023-10-09T12:29:11;11.93;;;5.97;;
25153;SDS011;47555;51.038;6.280;2023-10-09T12:31:37;11.30;;;5.78;;
25153;SDS011;47555;51.038;6.280;2023-10-09T12:34:03;12.73;;;6.10;;
25153;SDS011;47555;51.038;6.280;2023-10-09T12:36:30;10.75;;;5.93;;
25153;SDS011;47555;51.038;6.280;2023-10-09T12:39:02;11.65;;;5.25;;
25153;SDS011;47555;51.038;6.280;2023-10-09T12:41:28;10.18;;;5.93;;
25153;SDS011;47555;51.038;6.280;2023-10-09T12:43:58;11.60;;;6.22;;
25153;SDS011;47555;51.038;6.280;2023-10-09T12:46:24;10.15;;;6.35;;
25153;SDS011;47555;51.038;6.280;2023-10-09T12:48:57;9.75;;;5.90;;
25153;SDS011;47555;51.038;6.280;2023-10-09T12:51:23;9.55;;;5.75;;
25153;SDS011;47555;51.038;6.280;2023-10-09T12:53:54;10.35;;;5.90;;
25153;SDS011;47555;51.038;6.280;2023-10-09T12:56:26;11.25;;;5.97;;
25153;SDS011;47555;51.038;6.280;2023-10-09T12:59:02;8.80;;;5.10;;
25153;SDS011;47555;51.038;6.280;2023-10-09T13:01:30;9.10;;;5.53;;
25153;SDS011;47555;51.038;6.280;2023-10-09T13:04:07;8.65;;;5.95;;
25153;SDS011;47555;51.038;6.280;2023-10-09T13:06:36;11.35;;;6.03;;
25153;SDS011;47555;51.038;6.280;2023-10-09T13:09:08;9.93;;;5.65;;
25153;SDS011;47555;51.038;6.280;2023-10-09T13:11:34;11.45;;;5.68;;
25153;SDS011;47555;51.038;6.280;2023-10-09T13:14:02;10.05;;;5.18;;
25153;SDS011;47555;51.038;6.280;2023-10-09T13:16:36;10.05;;;5.43;;
25153;SDS011;47555;51.038;6.280;2023-10-09T13:19:02;13.13;;;6.15;;
25153;SDS011;47555;51.038;6.280;2023-10-09T13:21:35;10.52;;;5.70;;
25153;SDS011;47555;51.038;6.280;2023-10-09T13:24:05;9.93;;;5.97;;
25153;SDS011;47555;51.038;6.280;2023-10-09T13:26:33;13.45;;;6.00;;
25153;SDS011;47555;51.038;6.280;2023-10-09T13:29:00;14.25;;;5.90;;
25153;SDS011;47555;51.038;6.280;2023-10-09T13:31:26;11.05;;;6.28;;
25153;SDS011;47555;51.038;6.280;2023-10-09T13:33:53;9.85;;;5.72;;
25153;SDS011;47555;51.038;6.280;2023-10-09T13:36:20;8.65;;;5.70;;
25153;SDS011;47555;51.038;6.280;2023-10-09T13:39:07;10.35;;;5.88;;
25153;SDS011;47555;51.038;6.280;2023-10-09T13:41:55;12.45;;;6.03;;
25153;SDS011;47555;51.038;6.280;2023-10-09T13:46:51;11.48;;;6.13;;
25153;SDS011;47555;51.038;6.280;2023-10-09T13:49:18;10.77;;;6.00;;
25153;SDS011;47555;51.038;6.280;2023-10-09T13:51:47;12.00;;;6.13;;
25153;SDS011;47555;51.038;6.280;2023-10-09T13:54:15;11.48;;;6.35;;
25153;SDS011;47555;51.038;6.280;2023-10-09T13:56:56;10.70;;;6.32;;
25153;SDS011;47555;51.038;6.280;2023-10-09T13:59:22;11.85;;;6.25;;
25153;SDS011;47555;51.038;6.280;2023-10-09T14:01:50;9.90;;;5.55;;
25153;SDS011;47555;51.038;6.280;2023-10-09T14:04:16;14.80;;;6.30;;
25153;SDS011;47555;51.038;6.280;2023-10-09T14:06:44;11.13;;;5.90;;
25153;SDS011;47555;51.038;6.280;2023-10-09T14:09:10;14.07;;;6.65;;
25153;SDS011;47555;51.038;6.280;2023-10-09T14:11:49;10.73;;;6.00;;
25153;SDS011;47555;51.038;6.280;2023-10-09T14:14:17;11.77;;;6.13;;
25153;SDS011;47555;51.038;6.280;2023-10-09T14:16:49;11.43;;;6.55;;
25153;SDS011;47555;51.038;6.280;2023-10-09T14:19:22;11.40;;;6.40;;
25153;SDS011;47555;51.038;6.280;2023-10-09T14:21:48;10.77;;;6.20;;
25153;SDS011;47555;51.038;6.280;2023-10-09T14:24:14;13.02;;;6.88;;
25153;SDS011;47555;51.038;6.280;2023-10-09T14:26:41;11.43;;;6.22;;
25153;SDS011;47555;51.038;6.280;2023-10-09T14:29:07;10.57;;;6.15;;
25153;SDS011;47555;51.038;6.280;2023-10-09T14:31:33;11.32;;;6.47;;
25153;SDS011;47555;51.038;6.280;2023-10-09T14:34:04;13.57;;;6.70;;
25153;SDS011;47555;51.038;6.280;2023-10-09T14:36:30;13.70;;;6.80;;
25153;SDS011;47555;51.038;6.280;2023-10-09T14:39:00;11.05;;;6.18;;
25153;SDS011;47555;51.038;6.280;2023-10-09T14:41:26;11.88;;;6.55;;
25153;SDS011;47555;51.038;6.280;2023-10-09T14:43:53;10.18;;;6.25;;
25153;SDS011;47555;51.038;6.280;2023-10-09T14:46:19;11.63;;;6.43;;
25153;SDS011;47555;51.038;6.280;2023-10-09T14:48:50;13.75;;;7.00;;
25153;SDS011;47555;51.038;6.280;2023-10-09T14:51:18;11.95;;;6.60;;
25153;SDS011;47555;51.038;6.280;2023-10-09T14:53:51;10.38;;;6.40;;
25153;SDS011;47555;51.038;6.280;2023-10-09T14:56:18;15.20;;;6.68;;
25153;SDS011;47555;51.038;6.280;2023-10-09T14:58:53;11.82;;;5.82;;
25153;SDS011;47555;51.038;6.280;2023-10-09T15:01:21;10.68;;;6.15;;
25153;SDS011;47555;51.038;6.280;2023-10-09T15:03:49;11.75;;;6.63;;
25153;SDS011;47555;51.038;6.280;2023-10-09T15:06:18;14.38;;;6.68;;
25153;SDS011;47555;51.038;6.280;2023-10-09T15:08:44;12.23;;;6.45;;
25153;SDS011;47555;51.038;6.280;2023-10-09T15:11:11;9.18;;;6.55;;
25153;SDS011;47555;51.038;6.280;2023-10-09T15:13:39;12.13;;;7.20;;
25153;SDS011;47555;51.038;6.280;2023-10-09T15:16:05;15.25;;;6.97;;
25153;SDS011;47555;51.038;6.280;2023-10-09T15:18:31;11.07;;;6.85;;
25153;SDS011;47555;51.038;6.280;2023-10-09T15:21:02;10.50;;;6.45;;
25153;SDS011;47555;51.038;6.280;2023-10-09T15:23:28;11.50;;;6.55;;
25153;SDS011;47555;51.038;6.280;2023-10-09T15:25:54;9.15;;;5.53;;
25153;SDS011;47555;51.038;6.280;2023-10-09T15:28:21;11.38;;;6.70;;
25153;SDS011;47555;51.038;6.280;2023-10-09T15:30:47;13.80;;;6.75;;
25153;SDS011;47555;51.038;6.280;2023-10-09T15:33:14;13.48;;;6.38;;
25153;SDS011;47555;51.038;6.280;2023-10-09T15:35:44;8.68;;;5.75;;
25153;SDS011;47555;51.038;6.280;2023-10-09T15:38:15;13.68;;;7.65;;
25153;SDS011;47555;51.038;6.280;2023-10-09T15:40:41;12.07;;;7.00;;